createdAt,value
2023-03-17T00:00:32.812Z,2.57
2023-03-17T03:44:39.279Z,0.51
2023-03-17T03:48:39.486Z,0.51
2023-03-17T03:52:39.712Z,0.51
2023-03-17T03:56:39.876Z,0.52
2023-03-17T04:00:40.086Z,0.51
2023-03-17T04:04:40.315Z,0.50
2023-03-17T04:08:40.539Z,0.52
2023-03-17T04:12:40.745Z,0.51
2023-03-17T04:16:43.280Z,0.51
2023-03-17T04:20:40.668Z,0.51
2023-03-17T04:24:40.650Z,0.51
2023-03-17T04:28:40.582Z,0.52
2023-03-17T04:32:40.664Z,0.51
2023-03-17T04:36:40.520Z,0.51
2023-03-17T04:40:40.497Z,0.51
2023-03-17T04:44:40.538Z,0.50
2023-03-17T04:48:40.710Z,0.50
2023-03-17T04:52:40.928Z,0.51
2023-03-17T04:56:40.908Z,0.51
2023-03-17T05:00:40.916Z,0.51
2023-03-17T05:04:40.807Z,0.51
2023-03-17T05:08:40.762Z,0.51
2023-03-17T05:12:40.766Z,0.51
2023-03-17T05:16:40.746Z,0.52
2023-03-17T05:20:40.809Z,0.51
2023-03-17T05:24:40.764Z,0.51
2023-03-17T05:28:40.772Z,0.51
2023-03-17T05:32:40.739Z,0.50
2023-03-17T05:36:40.678Z,0.50
2023-03-17T05:40:40.621Z,0.52
2023-03-17T05:44:40.606Z,0.52
2023-03-17T05:48:40.683Z,0.51
2023-03-17T05:52:40.825Z,0.51
2023-03-17T05:56:40.786Z,0.51
2023-03-17T07:52:43.109Z,1.32
2023-03-17T13:16:47.697Z,4.27
2023-03-17T13:32:48.240Z,4.18
2023-03-17T13:36:48.150Z,4.18
2023-03-17T13:40:48.711Z,4.22
2023-03-17T13:44:48.557Z,4.17
2023-03-17T13:48:49.207Z,4.01
2023-03-17T13:52:49.220Z,4.05
2023-03-17T13:56:49.274Z,4.04
2023-03-17T14:00:49.831Z,4.09
2023-03-17T14:04:49.537Z,4.00
2023-03-17T14:08:49.749Z,3.93
2023-03-17T14:12:51.381Z,3.96
2023-03-17T14:16:50.516Z,3.92
2023-03-17T14:20:50.724Z,3.60
2023-03-17T14:24:51.746Z,3.93
2023-03-17T14:28:50.736Z,0.46
2023-03-17T14:32:51.001Z,1.31
2023-03-17T14:36:51.275Z,1.30
2023-03-17T14:40:50.825Z,1.20
2023-03-17T14:44:50.787Z,1.22
2023-03-17T14:48:50.799Z,1.22
2023-03-17T14:52:50.738Z,1.38
2023-03-17T14:56:50.708Z,1.57
2023-03-17T15:00:50.638Z,1.70
2023-03-17T15:04:50.765Z,1.94
2023-03-17T15:08:50.585Z,2.13
2023-03-17T15:12:50.742Z,2.36
2023-03-17T15:16:50.867Z,2.73
2023-03-17T15:20:50.769Z,2.92
2023-03-17T15:24:51.248Z,3.17
2023-03-17T15:28:51.244Z,3.31
2023-03-17T15:32:51.315Z,3.40
2023-03-17T15:36:51.291Z,3.42
2023-03-17T15:40:50.882Z,3.78
2023-03-17T15:44:51.254Z,3.68
2023-03-17T15:48:50.975Z,0.72
2023-03-17T15:52:51.199Z,0.50
2023-03-17T15:56:51.218Z,0.51
2023-03-17T16:00:51.766Z,0.51
2023-03-17T16:04:51.576Z,0.49
2023-03-17T16:08:51.560Z,0.50
2023-03-17T16:12:51.511Z,0.99
2023-03-17T16:16:51.762Z,1.94
2023-03-17T16:20:51.421Z,2.35
2023-03-17T19:16:54.498Z,26.48
2023-03-17T19:20:54.672Z,24.80
2023-03-17T19:24:54.862Z,24.30
2023-03-17T19:28:55.064Z,23.47
2023-03-17T19:44:55.919Z,20.23
2023-03-17T19:48:55.875Z,20.02
2023-03-17T19:52:55.868Z,19.16
2023-03-17T19:56:56.326Z,18.42
2023-03-17T20:00:55.777Z,17.48
2023-03-17T20:04:55.821Z,17.13
2023-03-17T20:08:55.714Z,17.19
2023-03-17T20:12:55.868Z,16.90
2023-03-17T20:16:55.735Z,16.19
2023-03-17T20:20:55.702Z,15.89
2023-03-17T20:24:55.684Z,15.45
2023-03-17T20:28:55.631Z,14.95
2023-03-17T20:32:55.690Z,14.39
2023-03-17T20:36:55.553Z,14.07
2023-03-17T20:40:55.623Z,13.61
2023-03-17T20:44:55.824Z,12.96
2023-03-17T20:48:56.029Z,12.34
2023-03-17T20:52:55.999Z,11.81
2023-03-17T20:56:55.993Z,11.34
2023-03-17T21:00:55.917Z,10.84
2023-03-17T21:04:55.884Z,10.35
2023-03-17T21:08:55.846Z,10.12
2023-03-17T21:12:55.837Z,10.07
2023-03-17T21:16:55.979Z,9.61
2023-03-17T21:20:55.950Z,9.34
2023-03-17T21:24:55.921Z,9.27
2023-03-17T21:28:55.899Z,8.85
2023-03-17T21:32:55.893Z,8.62
2023-03-17T21:36:56.004Z,8.06
2023-03-17T21:40:55.994Z,7.80
2023-03-17T21:44:55.973Z,7.60
2023-03-17T21:48:55.897Z,7.11
2023-03-17T21:56:55.817Z,6.35
2023-03-17T22:00:55.882Z,6.29
2023-03-17T22:04:56.000Z,6.03
2023-03-17T22:08:55.970Z,5.74
2023-03-17T22:12:55.928Z,5.81
2023-03-17T22:16:55.982Z,5.57
2023-03-17T22:20:55.870Z,5.47
2023-03-17T22:24:55.823Z,5.35
2023-03-17T22:28:55.822Z,4.91
2023-03-17T22:32:56.048Z,4.80
2023-03-17T22:36:55.881Z,4.68
2023-03-17T22:40:55.843Z,4.42
2023-03-17T22:44:55.802Z,4.27
2023-03-17T22:48:55.816Z,4.21
2023-03-17T22:52:55.735Z,4.06
2023-03-17T22:56:55.694Z,4.04
2023-03-17T23:00:55.920Z,3.87
2023-03-17T23:04:56.090Z,3.75
2023-03-17T23:08:56.285Z,3.62
2023-03-17T23:12:56.410Z,3.56
2023-03-17T23:16:56.642Z,3.38
2023-03-17T23:20:56.780Z,3.34
2023-03-17T23:24:56.908Z,3.24
2023-03-17T23:28:57.051Z,3.26
2023-03-17T23:32:57.250Z,2.94
2023-03-17T23:36:57.359Z,2.86
2023-03-17T23:40:57.513Z,2.91
2023-03-17T23:44:57.690Z,3.05
2023-03-17T23:48:57.874Z,3.01
2023-03-17T23:52:58.118Z,3.03
2023-03-17T23:56:58.087Z,3.18
